createdAt,value
2022-09-16T00:02:03.924Z,52.34
2022-09-16T00:04:30.247Z,52.28
2022-09-16T00:06:56.570Z,52.57
2022-09-16T00:09:22.927Z,52.64
2022-09-16T00:11:49.250Z,52.73
2022-09-16T00:14:15.584Z,52.60
2022-09-16T00:16:41.951Z,52.78
2022-09-16T00:19:08.267Z,52.81
2022-09-16T00:21:34.593Z,52.98
2022-09-16T00:24:00.959Z,52.98
2022-09-16T00:26:27.304Z,53.30
2022-09-16T00:28:53.630Z,53.43
2022-09-16T00:31:20.062Z,53.26
2022-09-16T00:33:46.324Z,53.53
2022-09-16T00:36:12.647Z,54.08
2022-09-16T00:38:38.985Z,54.24
2022-09-16T00:41:05.329Z,54.31
2022-09-16T00:43:31.679Z,54.64
2022-09-16T00:45:58.002Z,54.91
2022-09-16T00:48:24.330Z,54.82
2022-09-16T00:50:50.714Z,55.03
2022-09-16T00:53:17.035Z,54.75
2022-09-16T00:55:43.384Z,54.30
2022-09-16T00:58:09.714Z,54.04
2022-09-16T01:00:36.088Z,53.82
2022-09-16T01:03:02.363Z,53.92
2022-09-16T01:05:28.707Z,53.89
2022-09-16T01:07:55.042Z,53.37
2022-09-16T01:10:21.361Z,53.93
2022-09-16T01:12:47.714Z,52.77
2022-09-16T01:15:14.032Z,52.90
2022-09-16T01:17:40.380Z,53.31
2022-09-16T01:20:06.726Z,53.77
2022-09-16T01:22:33.051Z,54.20
2022-09-16T01:24:59.399Z,54.38
2022-09-16T01:27:25.725Z,54.49
2022-09-16T01:29:52.050Z,54.77
2022-09-16T01:32:18.412Z,54.85
2022-09-16T01:34:44.772Z,54.85
2022-09-16T01:37:11.073Z,54.54
2022-09-16T01:39:37.458Z,54.56
2022-09-16T01:42:03.772Z,54.16
2022-09-16T01:44:30.096Z,54.07
2022-09-16T01:46:56.489Z,53.95
2022-09-16T01:49:22.746Z,54.28
2022-09-16T01:51:49.092Z,54.54
2022-09-16T01:54:15.418Z,54.77
2022-09-16T01:56:41.754Z,55.12
2022-09-16T01:59:08.097Z,55.52
2022-09-16T02:01:34.514Z,55.46
2022-09-16T02:04:00.756Z,55.16
2022-09-16T02:06:27.079Z,55.18
2022-09-16T02:08:53.621Z,55.17
2022-09-16T02:11:19.760Z,55.38
2022-09-16T02:13:46.118Z,55.70
2022-09-16T02:16:12.607Z,55.70
2022-09-16T02:18:38.774Z,55.58
2022-09-16T02:21:05.147Z,55.85
2022-09-16T02:23:31.488Z,55.95
2022-09-16T02:25:57.822Z,55.75
2022-09-16T02:28:24.169Z,55.82
2022-09-16T02:30:50.530Z,55.86
2022-09-16T02:33:16.849Z,55.94
2022-09-16T02:35:43.188Z,55.81
2022-09-16T02:38:09.528Z,56.03
2022-09-16T02:40:35.868Z,55.88
2022-09-16T02:43:02.207Z,55.96
2022-09-16T02:45:28.521Z,56.06
2022-09-16T02:47:54.863Z,56.53
2022-09-16T02:50:21.186Z,56.24
2022-09-16T02:52:47.525Z,56.35
2022-09-16T02:55:13.886Z,56.25
2022-09-16T02:57:40.220Z,56.14
2022-09-16T03:00:06.554Z,56.36
2022-09-16T03:02:32.981Z,56.68
2022-09-16T03:04:59.266Z,56.88
2022-09-16T03:07:25.594Z,57.13
2022-09-16T03:09:51.966Z,57.22
2022-09-16T03:12:18.285Z,57.23
2022-09-16T03:14:44.602Z,57.34
2022-09-16T03:17:10.947Z,57.37
2022-09-16T03:19:37.266Z,57.40
2022-09-16T03:22:03.610Z,57.54
2022-09-16T03:24:29.964Z,57.85
2022-09-16T03:26:56.307Z,57.98
2022-09-16T03:29:22.620Z,57.96
2022-09-16T03:31:48.945Z,58.02
2022-09-16T03:34:15.282Z,57.86
2022-09-16T03:36:41.603Z,57.90
2022-09-16T03:39:07.944Z,58.15
2022-09-16T03:41:34.268Z,58.35
2022-09-16T03:44:04.036Z,58.32
2022-09-16T03:46:26.962Z,58.13
2022-09-16T03:48:53.269Z,58.59
2022-09-16T03:51:19.590Z,58.73
2022-09-16T03:53:45.909Z,58.46
2022-09-16T03:56:12.236Z,58.61
2022-09-16T03:58:38.610Z,58.76
2022-09-16T04:01:04.953Z,58.89
2022-09-16T04:03:33.309Z,58.46
2022-09-16T04:05:57.629Z,58.38
2022-09-16T04:08:23.944Z,58.65
2022-09-16T04:10:50.288Z,58.90
2022-09-16T04:13:16.610Z,59.13
2022-09-16T04:15:42.950Z,59.23
2022-09-16T04:18:09.254Z,59.50
2022-09-16T04:20:35.606Z,58.89
2022-09-16T04:23:01.939Z,59.25
2022-09-16T04:25:28.263Z,59.24
2022-09-16T04:27:54.607Z,59.00
2022-09-16T04:30:20.945Z,58.89
2022-09-16T04:32:47.278Z,58.85
2022-09-16T04:35:13.599Z,58.48
2022-09-16T04:37:39.922Z,58.30
2022-09-16T04:40:06.386Z,58.16
2022-09-16T04:42:32.602Z,58.00
2022-09-16T04:44:58.950Z,57.82
2022-09-16T04:47:25.284Z,57.77
2022-09-16T04:49:51.612Z,57.92
2022-09-16T04:52:17.971Z,57.91
2022-09-16T04:54:44.293Z,58.07
2022-09-16T04:57:10.639Z,61.17
2022-09-16T04:59:37.005Z,61.62
2022-09-16T05:02:03.318Z,61.04
2022-09-16T05:04:29.672Z,59.75
2022-09-16T05:06:56.026Z,59.21
2022-09-16T05:09:22.352Z,58.99
2022-09-16T05:11:48.670Z,59.42
2022-09-16T05:14:15.034Z,59.64
2022-09-16T05:16:41.367Z,59.67
2022-09-16T05:19:07.749Z,59.37
2022-09-16T05:21:34.159Z,58.85
2022-09-16T05:24:00.504Z,58.72
2022-09-16T05:26:26.818Z,58.11
2022-09-16T05:28:53.219Z,57.84
2022-09-16T05:31:19.685Z,57.87
2022-09-16T05:33:45.946Z,57.52
2022-09-16T05:36:12.280Z,57.37
2022-09-16T05:38:38.606Z,56.83
2022-09-16T05:41:04.943Z,56.72
2022-09-16T05:43:31.307Z,56.31
2022-09-16T05:45:57.697Z,56.27
2022-09-16T05:48:24.052Z,55.83
2022-09-16T05:50:50.388Z,55.67
2022-09-16T05:53:16.731Z,55.55
2022-09-16T05:55:43.101Z,55.47
2022-09-16T05:58:09.449Z,55.22
2022-09-16T06:00:35.801Z,55.08
2022-09-16T06:03:02.137Z,55.19
2022-09-16T06:05:28.453Z,54.28
2022-09-16T06:07:54.836Z,53.41
2022-09-16T06:10:21.150Z,53.09
2022-09-16T06:12:47.493Z,52.75
2022-09-16T06:15:13.832Z,52.38
2022-09-16T06:17:40.148Z,51.91
2022-09-16T06:20:06.535Z,51.58
2022-09-16T06:22:32.879Z,50.92
2022-09-16T06:24:59.212Z,51.15
2022-09-16T06:27:25.568Z,50.97
2022-09-16T06:29:51.888Z,51.26
2022-09-16T06:32:18.232Z,51.22
2022-09-16T06:34:44.602Z,51.06
2022-09-16T06:37:10.921Z,50.38
2022-09-16T06:39:37.303Z,50.78
2022-09-16T06:42:03.625Z,50.33
2022-09-16T06:44:29.945Z,50.44
2022-09-16T06:46:56.290Z,50.82
2022-09-16T06:49:22.623Z,51.24
2022-09-16T06:51:48.944Z,50.58
2022-09-16T06:54:15.290Z,49.40
2022-09-16T06:56:41.878Z,48.03
2022-09-16T06:59:07.959Z,47.73
2022-09-16T07:01:34.439Z,47.37
2022-09-16T07:04:00.663Z,46.52
2022-09-16T07:06:50.773Z,45.67
2022-09-16T07:08:53.365Z,44.97
2022-09-16T07:11:19.706Z,44.39
2022-09-16T07:13:46.041Z,43.81
2022-09-16T07:16:13.913Z,43.39
2022-09-16T07:18:38.721Z,42.60
2022-09-16T07:21:05.038Z,41.94
2022-09-16T07:23:31.492Z,41.61
2022-09-16T07:25:57.799Z,41.37
2022-09-16T07:28:24.140Z,41.04
2022-09-16T07:30:50.512Z,40.60
2022-09-16T07:33:16.825Z,39.97
2022-09-16T07:35:43.159Z,39.19
2022-09-16T07:38:09.486Z,39.04
2022-09-16T07:40:35.863Z,39.04
2022-09-16T07:43:02.173Z,38.91
2022-09-16T07:45:28.553Z,38.59
2022-09-16T07:47:54.836Z,38.27
2022-09-16T07:50:21.178Z,37.80
2022-09-16T07:52:47.528Z,37.13
2022-09-16T07:55:13.866Z,37.26
2022-09-16T07:57:40.211Z,36.93
2022-09-16T08:00:06.527Z,36.52
2022-09-16T08:02:32.866Z,36.29
2022-09-16T08:04:59.192Z,35.93
2022-09-16T08:07:25.518Z,36.34
2022-09-16T08:09:53.363Z,36.04
2022-09-16T08:12:18.206Z,36.24
2022-09-16T08:14:44.546Z,36.51
2022-09-16T08:17:10.881Z,36.29
2022-09-16T08:19:37.222Z,36.14
2022-09-16T08:22:03.540Z,36.06
2022-09-16T08:24:29.883Z,34.44
2022-09-16T08:29:22.549Z,35.01
2022-09-16T08:31:48.948Z,35.28
2022-09-16T08:34:15.211Z,35.62
2022-09-16T08:36:41.559Z,35.53
2022-09-16T08:39:07.900Z,35.63
2022-09-16T08:41:34.241Z,35.91
2022-09-16T08:44:00.591Z,35.90
2022-09-16T08:46:26.935Z,35.82
2022-09-16T08:48:53.271Z,36.11
2022-09-16T08:51:19.615Z,36.29
2022-09-16T08:53:45.953Z,36.60
2022-09-16T08:56:12.305Z,36.78
2022-09-16T08:58:38.621Z,37.02
2022-09-16T09:01:05.100Z,36.96
2022-09-16T09:03:31.328Z,37.09
2022-09-16T09:05:57.679Z,37.19
2022-09-16T09:08:23.993Z,37.48
2022-09-16T09:10:50.321Z,37.57
2022-09-16T09:13:17.741Z,37.55
2022-09-16T09:15:42.981Z,37.71
2022-09-16T09:18:11.753Z,37.93
2022-09-16T09:20:35.660Z,37.98
2022-09-16T09:23:02.013Z,37.95
2022-09-16T09:25:28.357Z,38.07
2022-09-16T09:27:54.687Z,38.21
2022-09-16T09:30:21.024Z,38.47
2022-09-16T09:32:49.740Z,38.25
2022-09-16T09:35:13.700Z,38.20
2022-09-16T09:37:40.061Z,38.29
2022-09-16T09:40:06.426Z,38.26
2022-09-16T09:42:32.691Z,38.64
2022-09-16T09:45:01.516Z,38.30
2022-09-16T09:47:25.394Z,38.44
2022-09-16T09:49:51.712Z,38.76
2022-09-16T09:52:18.033Z,38.66
2022-09-16T09:54:44.358Z,38.70
2022-09-16T09:57:10.921Z,38.83
2022-09-16T09:59:37.263Z,38.97
2022-09-16T10:02:03.678Z,39.00
2022-09-16T10:04:29.919Z,39.25
2022-09-16T10:06:56.315Z,39.19
2022-09-16T10:09:22.587Z,39.23
2022-09-16T10:11:48.902Z,39.33
2022-09-16T10:14:15.256Z,40.08
2022-09-16T10:16:41.633Z,41.37
2022-09-16T10:19:07.913Z,42.24
2022-09-16T10:21:34.272Z,42.70
2022-09-16T10:24:00.615Z,42.98
2022-09-16T10:26:26.938Z,43.17
2022-09-16T10:28:53.282Z,43.33
2022-09-16T10:31:19.643Z,42.96
2022-09-16T10:33:45.926Z,44.10
2022-09-16T10:36:12.292Z,45.87
2022-09-16T10:38:38.632Z,47.01
2022-09-16T10:41:04.948Z,47.94
2022-09-16T10:43:31.298Z,48.50
2022-09-16T10:45:57.674Z,48.69
2022-09-16T10:48:23.959Z,49.19
2022-09-16T10:50:50.278Z,49.67
2022-09-16T10:53:16.618Z,50.17
2022-09-16T10:55:42.954Z,50.46
2022-09-16T10:58:09.299Z,50.64
2022-09-16T11:00:35.630Z,50.64
2022-09-16T11:03:01.974Z,50.76
2022-09-16T11:05:28.288Z,50.62
2022-09-16T11:07:54.606Z,50.64
2022-09-16T11:10:20.961Z,50.80
2022-09-16T11:12:47.300Z,50.99
2022-09-16T11:15:13.638Z,51.88
2022-09-16T11:17:39.998Z,51.98
2022-09-16T11:20:06.335Z,51.84
2022-09-16T11:22:32.674Z,51.56
2022-09-16T11:24:59.018Z,50.56
2022-09-16T11:27:25.371Z,50.61
2022-09-16T11:29:51.700Z,49.86
2022-09-16T11:32:18.026Z,49.46
2022-09-16T11:34:44.340Z,48.99
2022-09-16T11:37:10.717Z,48.41
2022-09-16T11:39:37.029Z,49.42
2022-09-16T11:42:03.374Z,48.74
2022-09-16T11:44:29.717Z,48.76
2022-09-16T11:46:56.129Z,49.20
2022-09-16T11:49:22.393Z,48.93
2022-09-16T11:51:48.736Z,48.91
2022-09-16T11:54:15.089Z,48.77
2022-09-16T11:56:41.442Z,49.42
2022-09-16T11:59:07.752Z,48.79
2022-09-16T12:01:34.263Z,49.87
2022-09-16T12:04:00.431Z,50.30
2022-09-16T12:06:26.748Z,49.74
2022-09-16T12:08:53.128Z,49.25
2022-09-16T12:11:19.428Z,48.52
2022-09-16T12:13:45.772Z,48.05
2022-09-16T12:16:12.075Z,48.00
2022-09-16T12:18:38.420Z,47.92
2022-09-16T12:21:04.734Z,48.13
2022-09-16T12:23:31.076Z,48.29
2022-09-16T12:25:57.446Z,48.41
2022-09-16T12:28:23.761Z,48.79
2022-09-16T12:30:50.198Z,48.77
2022-09-16T12:33:16.456Z,48.68
2022-09-16T12:35:43.235Z,48.65
2022-09-16T12:38:09.556Z,48.84
2022-09-16T12:40:35.947Z,49.12
2022-09-16T12:43:02.227Z,49.30
2022-09-16T12:45:28.551Z,48.92
2022-09-16T12:47:54.924Z,48.94
2022-09-16T12:50:21.265Z,48.87
2022-09-16T12:52:47.601Z,48.92
2022-09-16T12:55:13.943Z,48.93
2022-09-16T12:57:40.257Z,49.20
2022-09-16T13:00:06.581Z,50.15
2022-09-16T13:02:33.026Z,49.83
2022-09-16T13:04:59.253Z,49.68
2022-09-16T13:07:25.609Z,50.80
2022-09-16T13:09:51.948Z,50.10
2022-09-16T13:14:44.645Z,50.34
2022-09-16T13:17:10.975Z,50.51
2022-09-16T13:19:37.303Z,50.91
2022-09-16T13:22:03.653Z,51.12
2022-09-16T13:24:29.999Z,51.57
2022-09-16T13:26:56.307Z,51.75
2022-09-16T13:29:22.658Z,51.86
2022-09-16T13:31:49.150Z,52.10
2022-09-16T13:34:15.355Z,53.96
2022-09-16T13:36:41.692Z,55.02
2022-09-16T13:39:08.033Z,54.35
2022-09-16T13:41:34.370Z,54.21
2022-09-16T13:44:00.697Z,55.90
2022-09-16T13:46:27.128Z,55.50
2022-09-16T13:48:53.474Z,55.59
2022-09-16T13:51:19.747Z,55.41
2022-09-16T13:53:46.072Z,54.95
2022-09-16T13:56:12.425Z,54.02
2022-09-16T13:58:38.777Z,55.83
2022-09-16T14:01:05.151Z,54.77
2022-09-16T14:03:31.537Z,56.38
2022-09-16T14:05:57.810Z,57.25
2022-09-16T14:08:24.154Z,58.02
2022-09-16T14:10:50.475Z,58.57
2022-09-16T14:13:16.842Z,58.49
2022-09-16T14:15:43.262Z,57.01
2022-09-16T14:18:09.532Z,56.00
2022-09-16T14:20:35.892Z,55.81
2022-09-16T14:23:02.232Z,55.81
2022-09-16T14:25:29.730Z,55.78
2022-09-16T14:27:54.960Z,55.73
2022-09-16T14:30:21.297Z,55.75
2022-09-16T14:32:47.613Z,55.77
2022-09-16T14:35:13.963Z,55.89
2022-09-16T14:37:40.282Z,56.70
2022-09-16T14:40:06.623Z,57.76
2022-09-16T14:42:32.924Z,58.38
2022-09-16T14:44:59.268Z,58.13
2022-09-16T14:47:39.755Z,57.63
2022-09-16T14:49:51.939Z,56.90
2022-09-16T14:52:18.258Z,56.74
2022-09-16T14:54:44.577Z,57.48
2022-09-16T14:57:10.925Z,58.36
2022-09-16T14:59:37.261Z,59.06
2022-09-16T15:02:03.641Z,59.22
2022-09-16T15:04:29.935Z,59.00
2022-09-16T15:06:58.102Z,58.53
2022-09-16T15:09:22.594Z,58.70
2022-09-16T15:11:49.325Z,59.02
2022-09-16T15:14:15.247Z,58.59
2022-09-16T15:16:41.591Z,58.25
2022-09-16T15:19:07.902Z,58.06
2022-09-16T15:21:34.255Z,58.32
2022-09-16T15:24:00.608Z,59.19
2022-09-16T15:26:26.936Z,59.65
2022-09-16T15:28:53.259Z,60.11
2022-09-16T15:31:19.787Z,60.17
2022-09-16T15:33:46.080Z,60.63
2022-09-16T15:36:12.422Z,60.73
2022-09-16T15:38:43.579Z,61.03
2022-09-16T15:41:05.310Z,61.35
2022-09-16T15:43:32.165Z,61.80
2022-09-16T15:45:58.560Z,61.68
2022-09-16T15:48:24.870Z,62.12
2022-09-16T15:50:51.221Z,62.24
2022-09-16T15:53:17.526Z,62.32
2022-09-16T15:55:44.037Z,62.47
2022-09-16T15:58:10.380Z,62.06
2022-09-16T16:00:36.928Z,61.93
2022-09-16T16:03:03.258Z,62.39
2022-09-16T16:05:29.563Z,62.72
2022-09-16T16:07:55.905Z,63.03
2022-09-16T16:10:22.383Z,63.30
2022-09-16T16:12:48.699Z,63.62
2022-09-16T16:15:15.119Z,63.82
2022-09-16T16:17:41.643Z,64.01
2022-09-16T16:20:08.043Z,64.28
2022-09-16T16:22:34.678Z,64.44
2022-09-16T16:25:00.722Z,64.54
2022-09-16T16:27:27.048Z,64.30
2022-09-16T16:29:53.379Z,63.96
2022-09-16T16:32:19.724Z,63.65
2022-09-16T16:34:46.049Z,63.42
2022-09-16T16:37:23.457Z,63.37
2022-09-16T16:39:38.747Z,63.67
2022-09-16T16:42:05.050Z,64.00
2022-09-16T16:44:31.376Z,64.02
2022-09-16T16:46:57.747Z,64.16
2022-09-16T16:49:24.051Z,64.29
2022-09-16T16:51:50.465Z,64.39
2022-09-16T16:54:16.784Z,64.56
2022-09-16T16:56:43.118Z,64.72
2022-09-16T16:59:09.592Z,64.30
2022-09-16T17:01:35.981Z,64.22
2022-09-16T17:04:02.267Z,64.22
2022-09-16T17:06:28.635Z,64.18
2022-09-16T17:08:55.003Z,64.11
2022-09-16T17:11:21.493Z,63.85
2022-09-16T17:13:47.949Z,63.73
2022-09-16T17:16:14.392Z,63.75
2022-09-16T17:18:40.648Z,63.57
2022-09-16T17:21:07.118Z,63.78
2022-09-16T17:23:33.493Z,64.08
2022-09-16T17:25:59.948Z,64.39
2022-09-16T17:28:26.273Z,64.68
2022-09-16T17:30:52.678Z,64.92
2022-09-16T17:33:19.204Z,64.85
2022-09-16T17:35:45.523Z,64.79
2022-09-16T17:38:11.947Z,64.74
2022-09-16T17:40:38.372Z,64.91
2022-09-16T17:43:04.604Z,65.24
2022-09-16T17:45:30.975Z,65.22
2022-09-16T17:47:57.318Z,65.10
2022-09-16T17:50:23.676Z,65.21
2022-09-16T17:52:49.987Z,65.17
2022-09-16T17:55:16.350Z,65.19
2022-09-16T17:57:42.693Z,65.46
2022-09-16T18:00:09.063Z,65.58
2022-09-16T18:02:35.433Z,66.73
2022-09-16T18:05:01.798Z,69.33
2022-09-16T18:07:28.020Z,73.44
2022-09-16T18:09:54.367Z,75.18
2022-09-16T18:12:20.699Z,76.86
2022-09-16T18:14:47.055Z,78.08
2022-09-16T18:17:13.455Z,78.50
2022-09-16T18:19:39.900Z,77.88
2022-09-16T18:22:06.215Z,77.42
2022-09-16T18:24:32.562Z,77.21
2022-09-16T18:26:58.936Z,77.58
2022-09-16T18:29:25.267Z,77.42
2022-09-16T18:31:51.609Z,78.94
2022-09-16T18:34:18.045Z,78.28
2022-09-16T18:36:44.433Z,78.27
2022-09-16T18:39:10.764Z,78.83
2022-09-16T18:41:37.072Z,78.94
2022-09-16T18:44:03.398Z,78.12
2022-09-16T18:46:29.957Z,78.56
2022-09-16T18:48:56.200Z,78.34
2022-09-16T18:51:22.554Z,78.87
2022-09-16T18:53:48.857Z,78.70
2022-09-16T18:56:15.206Z,78.35
2022-09-16T18:58:41.572Z,77.87
2022-09-16T19:01:07.936Z,77.71
2022-09-16T19:03:34.239Z,78.13
2022-09-16T19:06:00.596Z,78.47
2022-09-16T19:08:26.931Z,78.37
2022-09-16T19:10:53.257Z,78.93
2022-09-16T19:13:19.579Z,78.64
2022-09-16T19:15:45.911Z,78.79
2022-09-16T19:18:12.246Z,78.47
2022-09-16T19:20:38.573Z,78.73
2022-09-16T19:23:04.924Z,78.56
2022-09-16T19:25:31.241Z,78.98
2022-09-16T19:27:57.593Z,79.34
2022-09-16T19:30:23.906Z,79.58
2022-09-16T19:32:50.365Z,79.41
2022-09-16T19:35:16.612Z,79.41
2022-09-16T19:37:42.948Z,79.64
2022-09-16T19:40:09.409Z,79.73
2022-09-16T19:42:35.638Z,79.76
2022-09-16T19:45:01.964Z,80.03
2022-09-16T19:47:28.312Z,79.99
2022-09-16T19:49:54.633Z,79.96
2022-09-16T19:52:20.965Z,79.39
2022-09-16T19:54:47.286Z,78.97
2022-09-16T19:57:13.638Z,79.54
2022-09-16T19:59:39.972Z,79.66
2022-09-16T20:02:06.361Z,79.09
2022-09-16T20:04:32.690Z,78.82
2022-09-16T20:06:59.004Z,78.95
2022-09-16T20:09:25.366Z,78.91
2022-09-16T20:11:51.682Z,78.79
2022-09-16T20:14:18.008Z,79.33
2022-09-16T20:16:44.405Z,79.93
2022-09-16T20:19:10.658Z,79.64
2022-09-16T20:21:37.084Z,79.65
2022-09-16T20:24:03.404Z,79.74
2022-09-16T20:26:29.715Z,79.75
2022-09-16T20:28:56.061Z,79.19
2022-09-16T20:31:22.414Z,79.42
2022-09-16T20:33:48.733Z,79.44
2022-09-16T20:36:15.055Z,79.77
2022-09-16T20:38:41.389Z,80.21
2022-09-16T20:41:07.775Z,79.96
2022-09-16T20:43:34.081Z,79.90
2022-09-16T20:46:00.452Z,80.10
2022-09-16T20:48:26.765Z,79.40
2022-09-16T20:50:53.102Z,79.72
2022-09-16T20:53:19.443Z,79.20
2022-09-16T20:55:45.830Z,79.74
2022-09-16T20:58:12.104Z,80.75
2022-09-16T21:00:38.484Z,81.11
2022-09-16T21:03:04.788Z,80.82
2022-09-16T21:05:31.126Z,80.71
2022-09-16T21:07:57.507Z,80.51
2022-09-16T21:10:23.831Z,80.92
2022-09-16T21:12:50.159Z,81.25
2022-09-16T21:15:16.489Z,81.43
2022-09-16T21:17:42.822Z,81.72
2022-09-16T21:20:09.182Z,81.71
2022-09-16T21:22:35.518Z,81.23
2022-09-16T21:25:01.834Z,81.46
2022-09-16T21:27:28.173Z,81.15
2022-09-16T21:29:54.515Z,81.27
2022-09-16T21:32:20.828Z,81.59
2022-09-16T21:34:47.147Z,82.01
2022-09-16T21:37:13.516Z,82.19
2022-09-16T21:39:39.847Z,82.21
2022-09-16T21:42:06.159Z,82.27
2022-09-16T21:44:32.520Z,82.15
2022-09-16T21:46:58.847Z,82.05
2022-09-16T21:49:25.173Z,82.02
2022-09-16T21:51:51.555Z,81.98
2022-09-16T21:54:20.121Z,81.60
2022-09-16T21:56:44.197Z,81.57
2022-09-16T21:59:10.547Z,81.97
2022-09-16T22:01:36.934Z,82.12
2022-09-16T22:04:03.206Z,81.89
2022-09-16T22:06:29.539Z,81.60
2022-09-16T22:08:55.848Z,81.75
2022-09-16T22:11:22.180Z,81.56
2022-09-16T22:13:48.510Z,81.58
2022-09-16T22:16:14.993Z,81.69
2022-09-16T22:18:41.176Z,81.48
2022-09-16T22:21:07.480Z,81.35
2022-09-16T22:23:33.810Z,81.35
2022-09-16T22:26:00.159Z,81.73
2022-09-16T22:28:26.524Z,81.65
2022-09-16T22:30:52.836Z,81.55
2022-09-16T22:33:19.118Z,81.53
2022-09-16T22:35:45.420Z,81.20
2022-09-16T22:38:11.757Z,81.10
2022-09-16T22:40:38.105Z,81.22
2022-09-16T22:43:04.437Z,81.19
2022-09-16T22:45:30.761Z,81.17
2022-09-16T22:47:57.094Z,81.17
2022-09-16T22:50:23.424Z,81.30
2022-09-16T22:52:49.753Z,81.32
2022-09-16T22:55:16.098Z,81.48
2022-09-16T22:57:42.410Z,82.02
2022-09-16T23:00:08.740Z,82.17
2022-09-16T23:02:35.054Z,82.11
2022-09-16T23:05:01.360Z,82.73
2022-09-16T23:07:27.677Z,82.78
2022-09-16T23:09:54.001Z,82.93
2022-09-16T23:12:20.333Z,83.02
2022-09-16T23:14:46.639Z,82.87
2022-09-16T23:17:12.972Z,82.81
2022-09-16T23:19:39.318Z,82.77
2022-09-16T23:22:05.627Z,83.16
2022-09-16T23:24:31.957Z,83.31
2022-09-16T23:26:58.313Z,83.50
2022-09-16T23:29:24.616Z,83.45
2022-09-16T23:31:50.947Z,83.50
2022-09-16T23:34:17.310Z,83.75
2022-09-16T23:36:43.632Z,84.04
2022-09-16T23:39:09.963Z,84.21
2022-09-16T23:41:36.296Z,84.02
2022-09-16T23:44:02.618Z,84.14
2022-09-16T23:46:29.003Z,84.24
2022-09-16T23:48:55.303Z,84.46
2022-09-16T23:51:24.731Z,84.29
2022-09-16T23:53:47.920Z,84.29
2022-09-16T23:56:14.254Z,84.28
2022-09-16T23:58:40.590Z,84.50
